createdAt,value
2022-12-12T00:00:36.173Z,0.33
2022-12-12T00:01:36.148Z,0.23
2022-12-12T00:02:36.222Z,0.21
2022-12-12T00:03:36.248Z,0.18
2022-12-12T00:04:36.122Z,0.23
2022-12-12T00:05:36.129Z,0.20
2022-12-12T00:06:36.166Z,0.17
2022-12-12T00:07:36.091Z,0.36
2022-12-12T00:08:36.078Z,0.38
2022-12-12T00:09:36.065Z,0.39
2022-12-12T00:10:36.083Z,0.46
2022-12-12T00:11:36.054Z,0.42
2022-12-12T00:12:36.034Z,0.51
2022-12-12T00:13:36.025Z,0.51
2022-12-12T00:14:36.018Z,0.46
2022-12-12T00:15:36.085Z,0.50
2022-12-12T00:16:35.998Z,0.53
2022-12-12T00:17:37.002Z,0.60
2022-12-12T00:18:36.990Z,0.61
2022-12-12T00:19:35.985Z,0.60
2022-12-12T00:20:35.962Z,0.58
2022-12-12T00:21:35.958Z,0.61
2022-12-12T00:22:35.965Z,0.75
2022-12-12T00:23:35.936Z,0.69
2022-12-12T00:24:35.921Z,0.73
2022-12-12T00:25:35.932Z,0.68
2022-12-12T00:26:41.172Z,0.65
2022-12-12T00:27:36.918Z,0.62
2022-12-12T00:28:35.907Z,0.61
2022-12-12T00:29:35.893Z,0.60
2022-12-12T00:30:35.872Z,0.55
2022-12-12T00:31:35.974Z,0.50
2022-12-12T00:32:35.872Z,0.46
2022-12-12T00:33:35.827Z,0.38
2022-12-12T00:34:36.831Z,0.46
2022-12-12T00:35:35.817Z,0.41
2022-12-12T00:36:35.817Z,0.32
2022-12-12T00:37:35.848Z,0.35
2022-12-12T00:38:35.789Z,0.44
2022-12-12T00:39:35.773Z,0.46
2022-12-12T00:40:35.772Z,0.51
2022-12-12T00:41:35.754Z,0.61
2022-12-12T00:42:35.773Z,0.62
2022-12-12T00:43:35.770Z,0.68
2022-12-12T00:44:35.735Z,0.66
2022-12-12T00:45:35.714Z,0.75
2022-12-12T00:46:35.750Z,0.75
2022-12-12T00:47:35.692Z,0.73
2022-12-12T00:48:35.717Z,0.73
2022-12-12T00:49:35.698Z,0.72
2022-12-12T00:50:35.693Z,0.73
2022-12-12T00:51:35.666Z,0.78
2022-12-12T00:52:35.649Z,0.70
2022-12-12T00:53:36.664Z,0.75
2022-12-12T00:54:35.646Z,0.62
2022-12-12T00:55:35.622Z,0.69
2022-12-12T00:56:35.618Z,0.60
2022-12-12T00:57:35.618Z,0.60
2022-12-12T00:58:35.596Z,0.58
2022-12-12T00:59:35.601Z,0.78
2022-12-12T01:00:35.576Z,0.68
2022-12-12T01:01:35.654Z,0.86
2022-12-12T01:02:35.607Z,0.76
2022-12-12T01:03:35.540Z,0.70
2022-12-12T01:04:35.562Z,0.73
2022-12-12T01:05:35.539Z,0.68
2022-12-12T01:06:35.521Z,0.72
2022-12-12T01:07:35.512Z,0.70
2022-12-12T01:08:35.502Z,0.57
2022-12-12T01:09:35.512Z,0.42
2022-12-12T01:10:35.499Z,0.41
2022-12-12T01:11:36.463Z,0.50
2022-12-12T01:12:35.467Z,0.55
2022-12-12T01:13:35.452Z,0.66
2022-12-12T01:14:35.441Z,0.65
2022-12-12T01:15:35.501Z,0.57
2022-12-12T01:16:35.520Z,0.49
2022-12-12T01:17:35.402Z,0.46
2022-12-12T01:18:35.402Z,0.55
2022-12-12T01:19:35.395Z,0.38
2022-12-12T01:20:35.399Z,0.42
2022-12-12T01:21:35.380Z,0.35
2022-12-12T01:22:35.367Z,0.39
2022-12-12T01:23:35.359Z,0.35
2022-12-12T01:24:35.357Z,0.33
2022-12-12T01:25:35.327Z,0.33
2022-12-12T01:26:35.349Z,0.33
2022-12-12T01:27:35.325Z,0.28
2022-12-12T01:28:35.301Z,0.26
2022-12-12T01:29:35.300Z,0.23
2022-12-12T01:30:35.301Z,0.26
2022-12-12T01:31:35.404Z,0.21
2022-12-12T01:32:35.285Z,0.20
2022-12-12T01:33:35.269Z,0.39
2022-12-12T01:34:35.288Z,0.42
2022-12-12T01:35:35.230Z,0.41
2022-12-12T01:36:35.226Z,0.47
2022-12-12T01:37:35.216Z,0.50
2022-12-12T01:38:35.211Z,0.51
2022-12-12T01:39:35.223Z,0.46
2022-12-12T01:40:35.210Z,0.49
2022-12-12T01:41:35.178Z,0.42
2022-12-12T01:42:35.177Z,0.39
2022-12-12T01:43:35.162Z,0.41
2022-12-12T01:44:35.148Z,0.38
2022-12-12T01:45:35.160Z,0.29
2022-12-12T01:46:35.184Z,0.29
2022-12-12T01:47:35.115Z,0.35
2022-12-12T01:48:36.107Z,0.31
2022-12-12T01:49:36.143Z,0.31
2022-12-12T01:50:35.105Z,0.32
2022-12-12T01:51:35.083Z,0.47
2022-12-12T01:52:35.084Z,0.47
2022-12-12T01:53:35.072Z,0.57
2022-12-12T01:54:35.071Z,0.57
2022-12-12T01:55:35.049Z,0.60
2022-12-12T01:56:35.043Z,0.57
2022-12-12T01:57:35.046Z,0.49
2022-12-12T01:58:35.015Z,0.41
2022-12-12T01:59:35.010Z,0.36
2022-12-12T02:00:35.037Z,0.28
2022-12-12T02:01:34.998Z,0.15
2022-12-12T02:02:35.009Z,0.20
2022-12-12T02:03:34.966Z,0.04
2022-12-12T02:04:34.964Z,0.00
2022-12-12T02:05:34.958Z,0.02
2022-12-12T02:06:34.949Z,-0.04
2022-12-12T02:07:34.944Z,-0.04
2022-12-12T02:08:34.938Z,-0.07
2022-12-12T02:09:34.974Z,-0.07
2022-12-12T02:10:34.904Z,-0.03
2022-12-12T02:11:34.898Z,0.08
2022-12-12T02:12:34.885Z,0.08
2022-12-12T02:13:34.873Z,0.11
2022-12-12T02:14:34.880Z,0.13
2022-12-12T02:15:34.880Z,0.18
2022-12-12T02:16:34.895Z,0.24
2022-12-12T02:17:34.857Z,0.21
2022-12-12T02:18:34.829Z,0.26
2022-12-12T02:19:34.834Z,0.21
2022-12-12T02:20:34.812Z,0.29
2022-12-12T02:21:34.793Z,0.24
2022-12-12T02:22:34.804Z,0.15
2022-12-12T02:23:34.773Z,0.13
2022-12-12T02:24:34.773Z,0.00
2022-12-12T02:25:34.778Z,-0.04
2022-12-12T02:26:34.768Z,-0.11
2022-12-12T02:27:34.748Z,-0.14
2022-12-12T02:28:34.731Z,-0.18
2022-12-12T02:29:34.730Z,-0.29
2022-12-12T02:30:34.720Z,-0.37
2022-12-12T02:31:34.746Z,-0.54
2022-12-12T02:32:34.700Z,-0.58
2022-12-12T02:33:34.683Z,-0.61
2022-12-12T02:34:34.674Z,-0.72
2022-12-12T02:35:34.670Z,-0.72
2022-12-12T02:36:34.653Z,-0.78
2022-12-12T02:37:34.670Z,-0.79
2022-12-12T02:38:34.635Z,-0.82
2022-12-12T02:39:34.621Z,-0.83
2022-12-12T02:40:34.604Z,-0.91
2022-12-12T02:41:34.601Z,-0.86
2022-12-12T02:42:34.624Z,-0.89
2022-12-12T02:43:34.595Z,-0.92
2022-12-12T02:44:34.589Z,-1.05
2022-12-12T02:45:34.553Z,-1.02
2022-12-12T02:46:34.596Z,-1.09
2022-12-12T02:47:34.549Z,-1.04
2022-12-12T02:48:34.547Z,-1.07
2022-12-12T02:49:34.529Z,-0.99
2022-12-12T02:50:34.512Z,-1.01
2022-12-12T02:51:34.502Z,-0.99
2022-12-12T02:52:34.495Z,-1.07
2022-12-12T02:53:34.495Z,-1.12
2022-12-12T02:54:34.470Z,-1.10
2022-12-12T02:55:36.565Z,-1.07
2022-12-12T02:56:35.464Z,-1.10
2022-12-12T02:57:34.468Z,-1.09
2022-12-12T02:58:34.436Z,-1.07
2022-12-12T02:59:34.446Z,-1.10
2022-12-12T03:00:34.466Z,-1.05
2022-12-12T03:01:34.455Z,-1.04
2022-12-12T03:03:06.315Z,-1.13
2022-12-12T03:03:34.393Z,-1.10
2022-12-12T03:04:34.402Z,-1.13
2022-12-12T03:05:34.383Z,-1.23
2022-12-12T03:06:39.336Z,-1.19
2022-12-12T03:07:36.348Z,-1.34
2022-12-12T03:08:34.338Z,-1.38
2022-12-12T03:09:34.331Z,-1.43
2022-12-12T03:10:34.338Z,-1.38
2022-12-12T03:11:34.334Z,-1.34
2022-12-12T03:12:34.304Z,-1.41
2022-12-12T03:13:34.285Z,-1.38
2022-12-12T03:14:35.291Z,-1.48
2022-12-12T03:15:34.308Z,-1.45
2022-12-12T03:16:34.328Z,-1.33
2022-12-12T03:17:34.249Z,-1.37
2022-12-12T03:18:34.255Z,-1.30
2022-12-12T03:19:34.239Z,-1.49
2022-12-12T03:20:34.258Z,-1.45
2022-12-12T03:21:34.241Z,-1.56
2022-12-12T03:22:34.209Z,-1.48
2022-12-12T03:23:34.208Z,-1.45
2022-12-12T03:24:34.195Z,-1.52
2022-12-12T03:25:34.179Z,-1.41
2022-12-12T03:26:34.199Z,-1.41
2022-12-12T03:27:34.165Z,-1.34
2022-12-12T03:28:34.147Z,-1.45
2022-12-12T03:29:34.134Z,-1.46
2022-12-12T03:30:34.161Z,-1.31
2022-12-12T03:31:34.137Z,-1.41
2022-12-12T03:32:34.107Z,-1.27
2022-12-12T03:33:34.107Z,-1.31
2022-12-12T03:34:34.123Z,-1.37
2022-12-12T03:35:34.076Z,-1.35
2022-12-12T03:36:34.082Z,-1.31
2022-12-12T03:37:34.062Z,-1.31
2022-12-12T03:38:34.096Z,-1.22
2022-12-12T03:39:34.067Z,-1.31
2022-12-12T03:40:34.031Z,-1.25
2022-12-12T03:41:34.038Z,-1.23
2022-12-12T03:42:34.009Z,-1.22
2022-12-12T03:43:34.033Z,-1.16
2022-12-12T03:44:39.776Z,-1.09
2022-12-12T03:45:35.050Z,-1.10
2022-12-12T03:46:34.077Z,-1.04
2022-12-12T03:47:33.976Z,-1.05
2022-12-12T03:48:33.954Z,-1.10
2022-12-12T03:49:33.971Z,-1.02
2022-12-12T03:50:33.937Z,-1.13
2022-12-12T03:51:33.935Z,-1.04
2022-12-12T03:52:33.949Z,-1.07
2022-12-12T03:53:33.913Z,-1.05
2022-12-12T03:54:33.892Z,-1.10
2022-12-12T03:55:33.915Z,-1.20
2022-12-12T03:56:33.916Z,-1.15
2022-12-12T03:57:33.874Z,-1.16
2022-12-12T03:58:33.859Z,-1.19
2022-12-12T03:59:33.875Z,-1.19
2022-12-12T04:00:33.849Z,-1.19
2022-12-12T04:01:33.902Z,-1.16
2022-12-12T04:02:33.879Z,-1.16
2022-12-12T04:03:33.843Z,-1.23
2022-12-12T04:04:33.806Z,-1.15
2022-12-12T04:05:33.793Z,-1.10
2022-12-12T04:06:33.789Z,-1.17
2022-12-12T04:07:33.774Z,-1.13
2022-12-12T04:08:33.794Z,-1.13
2022-12-12T04:09:33.799Z,-1.12
2022-12-12T04:10:33.755Z,-1.10
2022-12-12T04:11:33.743Z,-1.13
2022-12-12T04:12:33.731Z,-1.27
2022-12-12T04:13:33.721Z,-1.30
2022-12-12T04:14:33.740Z,-1.43
2022-12-12T04:15:33.695Z,-1.41
2022-12-12T04:16:33.719Z,-1.48
2022-12-12T04:17:33.680Z,-1.54
2022-12-12T04:18:33.679Z,-1.49
2022-12-12T04:19:33.708Z,-1.41
2022-12-12T04:20:33.686Z,-1.43
2022-12-12T04:21:33.643Z,-1.46
2022-12-12T04:22:33.637Z,-1.56
2022-12-12T04:23:33.666Z,-1.62
2022-12-12T04:24:33.614Z,-1.55
2022-12-12T04:25:33.663Z,-1.52
2022-12-12T04:26:33.604Z,-1.48
2022-12-12T04:27:33.600Z,-1.54
2022-12-12T04:28:33.578Z,-1.51
2022-12-12T04:29:33.578Z,-1.58
2022-12-12T04:30:33.559Z,-1.58
2022-12-12T04:31:33.601Z,-1.72
2022-12-12T04:32:33.532Z,-1.69
2022-12-12T04:33:33.523Z,-1.73
2022-12-12T04:34:33.526Z,-1.90
2022-12-12T04:35:33.509Z,-1.97
2022-12-12T04:36:33.521Z,-2.12
2022-12-12T04:37:33.490Z,-2.09
2022-12-12T04:38:33.478Z,-2.13
2022-12-12T04:39:33.476Z,-2.03
2022-12-12T04:40:33.491Z,-2.09
2022-12-12T04:41:33.455Z,-2.06
2022-12-12T04:42:33.448Z,-2.10
2022-12-12T04:43:33.434Z,-2.09
2022-12-12T04:44:33.426Z,-2.05
2022-12-12T04:45:33.486Z,-2.03
2022-12-12T04:46:33.402Z,-1.88
2022-12-12T04:47:33.383Z,-1.88
2022-12-12T04:48:37.918Z,-1.80
2022-12-12T04:49:34.431Z,-1.80
2022-12-12T04:50:33.390Z,-1.72
2022-12-12T04:51:33.369Z,-1.74
2022-12-12T04:52:33.350Z,-1.73
2022-12-12T04:53:33.357Z,-1.67
2022-12-12T04:54:33.343Z,-1.67
2022-12-12T04:55:33.314Z,-1.61
2022-12-12T04:56:33.314Z,-1.66
2022-12-12T04:57:33.294Z,-1.72
2022-12-12T04:58:33.307Z,-1.70
2022-12-12T04:59:33.281Z,-1.64
2022-12-12T05:00:33.260Z,-1.70
2022-12-12T05:01:33.309Z,-1.72
2022-12-12T05:02:33.276Z,-1.73
2022-12-12T05:03:33.238Z,-1.66
2022-12-12T05:04:33.255Z,-1.70
2022-12-12T05:05:33.226Z,-1.69
2022-12-12T05:06:33.223Z,-1.72
2022-12-12T05:07:39.278Z,-1.67
2022-12-12T05:08:35.176Z,-1.72
2022-12-12T05:09:33.188Z,-1.66
2022-12-12T05:10:33.169Z,-1.72
2022-12-12T05:11:33.151Z,-1.79
2022-12-12T05:12:33.168Z,-1.85
2022-12-12T05:13:33.142Z,-1.80
2022-12-12T05:14:33.123Z,-1.87
2022-12-12T05:15:33.121Z,-2.06
2022-12-12T05:16:33.214Z,-1.97
2022-12-12T05:17:33.121Z,-1.85
2022-12-12T05:18:33.087Z,-1.87
2022-12-12T05:19:33.110Z,-1.95
2022-12-12T05:20:33.086Z,-1.88
2022-12-12T05:21:33.066Z,-1.85
2022-12-12T05:22:33.092Z,-1.97
2022-12-12T05:23:34.815Z,-1.90
2022-12-12T05:24:34.029Z,-2.03
2022-12-12T05:25:33.020Z,-2.02
2022-12-12T05:26:33.019Z,-1.98
2022-12-12T05:27:33.041Z,-1.92
2022-12-12T05:28:32.987Z,-1.95
2022-12-12T05:29:32.979Z,-1.98
2022-12-12T05:30:33.007Z,-1.97
2022-12-12T05:31:32.967Z,-2.03
2022-12-12T05:32:32.963Z,-1.98
2022-12-12T05:33:32.971Z,-2.05
2022-12-12T05:34:32.944Z,-2.02
2022-12-12T05:35:32.920Z,-2.09
2022-12-12T05:36:32.912Z,-1.94
2022-12-12T05:37:32.912Z,-1.97
2022-12-12T05:38:32.920Z,-2.02
2022-12-12T05:39:32.910Z,-1.91
2022-12-12T05:40:32.895Z,-2.02
2022-12-12T05:41:32.900Z,-1.91
2022-12-12T05:42:32.862Z,-2.09
2022-12-12T05:43:32.852Z,-2.12
2022-12-12T05:44:32.899Z,-2.21
2022-12-12T05:45:32.831Z,-2.24
2022-12-12T05:46:32.848Z,-2.34
2022-12-12T05:47:32.815Z,-2.37
2022-12-12T05:48:32.805Z,-2.30
2022-12-12T05:49:32.802Z,-2.42
2022-12-12T05:50:32.793Z,-2.37
2022-12-12T05:51:32.809Z,-2.42
2022-12-12T05:52:32.759Z,-2.53
2022-12-12T05:53:41.996Z,-2.56
2022-12-12T05:54:33.743Z,-2.63
2022-12-12T05:55:32.732Z,-2.63
2022-12-12T05:56:32.745Z,-2.71
2022-12-12T05:57:32.715Z,-2.64
2022-12-12T05:58:32.703Z,-2.64
2022-12-12T05:59:32.707Z,-2.67
2022-12-12T06:00:32.702Z,-2.58
2022-12-12T06:01:32.721Z,-2.66
2022-12-12T06:02:32.691Z,-2.74
2022-12-12T06:03:32.667Z,-2.82
2022-12-12T06:04:32.668Z,-2.77
2022-12-12T06:05:32.640Z,-2.85
2022-12-12T06:06:32.639Z,-2.89
2022-12-12T06:07:32.616Z,-2.86
2022-12-12T06:08:32.664Z,-2.92
2022-12-12T06:09:32.645Z,-2.89
2022-12-12T06:10:32.585Z,-2.96
2022-12-12T06:11:32.581Z,-2.94
2022-12-12T06:12:32.568Z,-3.05
2022-12-12T06:13:32.567Z,-3.00
2022-12-12T06:14:32.571Z,-3.02
2022-12-12T06:15:32.597Z,-2.99
2022-12-12T06:16:32.542Z,-3.06
2022-12-12T06:17:33.584Z,-3.07
2022-12-12T06:18:33.519Z,-3.17
2022-12-12T06:19:32.504Z,-3.23
2022-12-12T06:20:32.522Z,-3.27
2022-12-12T06:21:32.491Z,-3.24
2022-12-12T06:22:32.486Z,-3.14
2022-12-12T06:23:32.469Z,-3.15
2022-12-12T06:24:32.464Z,-3.15
2022-12-12T06:25:32.464Z,-3.09
2022-12-12T06:26:33.445Z,-3.17
2022-12-12T06:27:32.430Z,-3.09
2022-12-12T06:28:32.431Z,-3.12
2022-12-12T06:29:32.422Z,-3.31
2022-12-12T06:30:32.421Z,-3.35
2022-12-12T06:31:32.614Z,-3.45
2022-12-12T06:32:32.413Z,-3.36
2022-12-12T06:33:32.379Z,-3.39
2022-12-12T06:34:32.377Z,-3.39
2022-12-12T06:35:32.370Z,-3.43
2022-12-12T06:36:32.352Z,-3.38
2022-12-12T06:37:33.364Z,-3.42
2022-12-12T06:38:32.328Z,-3.53
2022-12-12T06:39:32.319Z,-3.59
2022-12-12T06:40:32.315Z,-3.59
2022-12-12T06:41:32.297Z,-3.79
2022-12-12T06:42:32.322Z,-3.69
2022-12-12T06:43:32.280Z,-3.79
2022-12-12T06:44:32.262Z,-3.75
2022-12-12T06:45:32.267Z,-3.67
2022-12-12T06:46:32.324Z,-3.59
2022-12-12T06:47:32.250Z,-3.71
2022-12-12T06:48:32.252Z,-3.83
2022-12-12T06:49:32.262Z,-3.71
2022-12-12T06:50:32.225Z,-3.67
2022-12-12T06:51:32.214Z,-3.63
2022-12-12T06:52:32.203Z,-3.62
2022-12-12T06:53:32.181Z,-3.53
2022-12-12T06:54:32.205Z,-3.54
2022-12-12T06:55:32.169Z,-3.49
2022-12-12T06:56:32.159Z,-3.56
2022-12-12T06:57:32.155Z,-3.45
2022-12-12T06:58:32.150Z,-3.42
2022-12-12T06:59:32.139Z,-3.45
2022-12-12T07:00:32.141Z,-3.48
2022-12-12T07:01:32.129Z,-3.42
2022-12-12T07:02:32.184Z,-3.49
2022-12-12T07:03:32.090Z,-3.52
2022-12-12T07:04:32.097Z,-3.46
2022-12-12T07:05:32.094Z,-3.52
2022-12-12T07:06:32.059Z,-3.56
2022-12-12T07:07:32.048Z,-3.57
2022-12-12T07:08:32.029Z,-3.60
2022-12-12T07:09:32.031Z,-3.83
2022-12-12T07:10:32.041Z,-3.79
2022-12-12T07:11:32.013Z,-3.88
2022-12-12T07:12:31.997Z,-3.94
2022-12-12T07:13:31.990Z,-3.90
2022-12-12T07:14:31.991Z,-4.00
2022-12-12T07:15:32.048Z,-3.97
2022-12-12T07:16:31.966Z,-3.93
2022-12-12T07:17:31.981Z,-3.94
2022-12-12T07:18:31.937Z,-3.93
2022-12-12T07:19:31.937Z,-4.07
2022-12-12T07:20:31.957Z,-4.04
2022-12-12T07:21:31.911Z,-3.99
2022-12-12T07:22:31.914Z,-3.97
2022-12-12T07:23:31.894Z,-3.99
2022-12-12T07:24:31.885Z,-3.85
2022-12-12T07:25:31.873Z,-3.82
2022-12-12T07:26:31.912Z,-3.91
2022-12-12T07:27:31.855Z,-3.94
2022-12-12T07:28:31.836Z,-4.07
2022-12-12T07:29:31.881Z,-4.00
2022-12-12T07:30:31.832Z,-3.93
2022-12-12T07:31:31.865Z,-3.79
2022-12-12T07:32:31.813Z,-3.75
2022-12-12T07:33:42.652Z,-3.82
2022-12-12T07:34:33.801Z,-3.69
2022-12-12T07:35:31.784Z,-3.54
2022-12-12T07:36:31.768Z,-3.81
2022-12-12T07:37:31.782Z,-3.66
2022-12-12T07:38:31.745Z,-3.60
2022-12-12T07:39:31.790Z,-3.62
2022-12-12T07:40:31.746Z,-3.64
2022-12-12T07:41:31.781Z,-3.72
2022-12-12T07:42:31.716Z,-3.56
2022-12-12T07:43:33.193Z,-3.82
2022-12-12T07:44:32.704Z,-3.66
2022-12-12T07:45:31.694Z,-3.72
2022-12-12T07:46:31.731Z,-3.81
2022-12-12T07:47:31.684Z,-3.81
2022-12-12T07:48:31.725Z,-3.88
2022-12-12T07:49:31.675Z,-3.91
2022-12-12T07:50:31.657Z,-3.88
2022-12-12T07:51:31.626Z,-4.17
2022-12-12T07:52:31.638Z,-4.18
2022-12-12T07:53:31.640Z,-4.11
2022-12-12T07:54:31.619Z,-4.12
2022-12-12T07:55:31.602Z,-4.11
2022-12-12T07:56:31.585Z,-4.12
2022-12-12T07:57:31.573Z,-4.03
2022-12-12T07:58:31.571Z,-3.97
2022-12-12T07:59:31.578Z,-3.86
2022-12-12T08:00:31.570Z,-3.88
2022-12-12T08:01:31.651Z,-3.82
2022-12-12T08:02:31.531Z,-3.94
2022-12-12T08:03:31.515Z,-3.91
2022-12-12T08:04:31.560Z,-3.76
2022-12-12T08:05:32.518Z,-3.71
2022-12-12T08:06:31.498Z,-3.79
2022-12-12T08:07:31.482Z,-3.76
2022-12-12T08:08:31.541Z,-3.79
2022-12-12T08:09:31.480Z,-3.69
2022-12-12T08:10:31.458Z,-3.71
2022-12-12T08:11:31.524Z,-3.71
2022-12-12T08:12:31.483Z,-3.60
2022-12-12T08:13:31.429Z,-3.64
2022-12-12T08:14:31.420Z,-3.60
2022-12-12T08:15:31.404Z,-3.60
2022-12-12T08:16:31.441Z,-3.56
2022-12-12T08:17:31.415Z,-3.49
2022-12-12T08:18:31.386Z,-3.48
2022-12-12T08:19:31.379Z,-3.43
2022-12-12T08:20:31.363Z,-3.39
2022-12-12T08:21:31.357Z,-3.28
2022-12-12T08:22:31.379Z,-3.20
2022-12-12T08:23:31.341Z,-3.14
2022-12-12T08:24:31.342Z,-2.99
2022-12-12T08:25:31.322Z,-3.00
2022-12-12T08:26:31.315Z,-2.96
2022-12-12T08:27:31.328Z,-2.92
2022-12-12T08:28:31.306Z,-2.73
2022-12-12T08:29:31.289Z,-2.82
2022-12-12T08:30:31.289Z,-2.77
2022-12-12T08:31:31.291Z,-2.73
2022-12-12T08:32:31.268Z,-2.78
2022-12-12T08:33:31.223Z,-2.71
2022-12-12T08:34:31.234Z,-2.71
2022-12-12T08:35:31.242Z,-2.64
2022-12-12T08:36:31.255Z,-2.63
2022-12-12T08:37:31.199Z,-2.66
2022-12-12T08:38:31.199Z,-2.67
2022-12-12T08:39:31.171Z,-2.58
2022-12-12T08:40:31.242Z,-2.61
2022-12-12T08:41:31.162Z,-2.58
2022-12-12T08:42:31.152Z,-2.53
2022-12-12T08:43:31.147Z,-2.43
2022-12-12T08:44:31.140Z,-2.37
2022-12-12T08:45:31.129Z,-2.35
2022-12-12T08:46:31.179Z,-2.32
2022-12-12T08:47:31.119Z,-2.40
2022-12-12T08:48:31.106Z,-2.35
2022-12-12T08:49:31.093Z,-2.37
2022-12-12T08:50:31.089Z,-2.40
2022-12-12T08:51:31.117Z,-2.34
2022-12-12T08:52:31.074Z,-2.40
2022-12-12T08:53:31.057Z,-2.34
2022-12-12T08:54:31.056Z,-2.30
2022-12-12T08:55:31.037Z,-2.29
2022-12-12T08:56:31.031Z,-2.26
2022-12-12T08:57:31.008Z,-2.08
2022-12-12T08:58:30.993Z,-2.03
2022-12-12T08:59:31.028Z,-1.90
2022-12-12T09:00:30.988Z,-1.76
2022-12-12T09:01:31.041Z,-1.52
2022-12-12T09:02:31.030Z,-1.46
2022-12-12T09:04:02.870Z,-1.23
2022-12-12T09:04:30.978Z,-1.25
2022-12-12T09:05:30.956Z,-1.19
2022-12-12T09:06:30.931Z,-1.30
2022-12-12T09:07:30.931Z,-1.23
2022-12-12T09:08:31.018Z,-1.35
2022-12-12T09:09:30.933Z,-1.31
2022-12-12T09:10:30.997Z,-1.28
2022-12-12T09:11:30.880Z,-1.19
2022-12-12T09:12:30.873Z,-1.02
2022-12-12T09:13:30.870Z,-0.79
2022-12-12T09:14:30.892Z,-0.78
2022-12-12T09:15:30.866Z,-0.67
2022-12-12T09:16:30.944Z,-0.78
2022-12-12T09:17:30.823Z,-0.91
2022-12-12T09:18:30.923Z,-0.94
2022-12-12T09:19:30.814Z,-1.09
2022-12-12T09:20:30.807Z,-1.15
2022-12-12T09:21:30.785Z,-1.30
2022-12-12T09:22:30.779Z,-1.49
2022-12-12T09:23:30.779Z,-1.62
2022-12-12T09:24:30.744Z,-1.85
2022-12-12T09:25:30.739Z,-1.95
2022-12-12T09:26:30.746Z,-1.95
2022-12-12T09:27:30.739Z,-2.02
2022-12-12T09:28:30.711Z,-1.94
2022-12-12T09:29:30.715Z,-1.87
2022-12-12T09:30:30.699Z,-1.92
2022-12-12T09:31:30.764Z,-1.97
2022-12-12T09:32:30.708Z,-1.85
2022-12-12T09:33:30.687Z,-1.87
2022-12-12T09:34:30.671Z,-1.88
2022-12-12T09:35:30.663Z,-2.06
2022-12-12T09:36:30.628Z,-1.92
2022-12-12T09:37:30.628Z,-2.00
2022-12-12T09:38:30.659Z,-2.08
2022-12-12T09:39:30.615Z,-1.98
2022-12-12T09:40:30.616Z,-1.88
2022-12-12T09:41:30.609Z,-1.76
2022-12-12T09:42:30.568Z,-1.80
2022-12-12T09:43:30.573Z,-1.82
2022-12-12T09:44:30.579Z,-1.90
2022-12-12T09:45:30.582Z,-1.84
2022-12-12T09:46:30.532Z,-1.67
2022-12-12T09:47:30.517Z,-1.66
2022-12-12T09:48:30.510Z,-1.52
2022-12-12T09:49:30.562Z,-1.61
2022-12-12T09:50:30.519Z,-1.66
2022-12-12T09:51:30.481Z,-1.62
2022-12-12T09:52:31.331Z,-1.62
2022-12-12T09:53:31.467Z,-1.49
2022-12-12T09:54:30.553Z,-1.43
2022-12-12T09:55:30.633Z,-1.45
2022-12-12T09:56:30.438Z,-1.49
2022-12-12T09:57:30.424Z,-1.48
2022-12-12T09:58:30.483Z,-1.61
2022-12-12T09:59:30.410Z,-1.51
2022-12-12T10:00:30.456Z,-1.48
2022-12-12T10:01:30.509Z,-1.56
2022-12-12T10:02:30.433Z,-1.62
2022-12-12T10:03:30.463Z,-1.62
2022-12-12T10:04:30.422Z,-1.46
2022-12-12T10:05:30.500Z,-1.46
2022-12-12T10:06:38.225Z,-1.38
2022-12-12T10:07:32.416Z,-1.37
2022-12-12T10:08:30.377Z,-1.46
2022-12-12T10:09:30.327Z,-1.48
2022-12-12T10:10:30.310Z,-1.48
2022-12-12T10:11:30.309Z,-1.62
2022-12-12T10:12:30.334Z,-1.59
2022-12-12T10:13:30.275Z,-1.62
2022-12-12T10:14:30.268Z,-1.69
2022-12-12T10:15:30.265Z,-1.64
2022-12-12T10:16:30.321Z,-1.51
2022-12-12T10:17:30.235Z,-1.54
2022-12-12T10:18:30.221Z,-1.69
2022-12-12T10:19:30.224Z,-1.69
2022-12-12T10:20:30.304Z,-1.70
2022-12-12T10:21:30.225Z,-1.76
2022-12-12T10:22:30.248Z,-1.91
2022-12-12T10:23:30.215Z,-2.02
2022-12-12T10:24:30.301Z,-2.05
2022-12-12T10:25:30.179Z,-2.08
2022-12-12T10:26:30.163Z,-1.98
2022-12-12T10:27:30.256Z,-2.09
2022-12-12T10:28:30.149Z,-2.03
2022-12-12T10:29:30.115Z,-2.13
2022-12-12T10:30:30.217Z,-2.05
2022-12-12T10:31:31.204Z,-1.95
2022-12-12T10:32:30.099Z,-1.90
2022-12-12T10:33:30.121Z,-1.87
2022-12-12T10:34:30.067Z,-1.80
2022-12-12T10:35:30.576Z,-1.84
2022-12-12T10:36:30.143Z,-1.84
2022-12-12T10:37:30.041Z,-1.72
2022-12-12T10:38:30.028Z,-1.72
2022-12-12T10:39:30.114Z,-1.82
2022-12-12T10:40:30.037Z,-1.90
2022-12-12T10:41:30.005Z,-1.92
2022-12-12T10:42:30.117Z,-2.00
2022-12-12T10:43:29.977Z,-1.94
2022-12-12T10:44:29.975Z,-1.90
2022-12-12T10:45:30.133Z,-1.73
2022-12-12T10:46:30.084Z,-1.64
2022-12-12T10:47:29.948Z,-1.58
2022-12-12T10:48:29.968Z,-1.62
2022-12-12T10:49:29.927Z,-1.70
2022-12-12T10:50:29.925Z,-1.72
2022-12-12T10:51:29.929Z,-1.74
2022-12-12T10:52:29.974Z,-1.77
2022-12-12T10:53:29.891Z,-1.76
2022-12-12T10:54:29.875Z,-1.70
2022-12-12T10:55:30.943Z,-1.70
2022-12-12T10:56:29.881Z,-1.73
2022-12-12T10:57:30.860Z,-1.82
2022-12-12T10:58:29.986Z,-2.03
2022-12-12T10:59:29.844Z,-2.06
2022-12-12T11:00:29.823Z,-2.08
2022-12-12T11:02:00.650Z,-2.02
2022-12-12T11:02:31.926Z,-2.03
2022-12-12T11:03:29.958Z,-1.95
2022-12-12T11:04:29.906Z,-1.91
2022-12-12T11:05:29.812Z,-1.98
2022-12-12T11:06:29.771Z,-2.00
2022-12-12T11:07:29.783Z,-1.82
2022-12-12T11:08:29.800Z,-1.79
2022-12-12T11:09:29.838Z,-1.66
2022-12-12T11:10:33.928Z,-1.70
2022-12-12T11:11:29.716Z,-1.73
2022-12-12T11:12:29.762Z,-1.64
2022-12-12T11:13:29.708Z,-1.72
2022-12-12T11:14:29.713Z,-1.67
2022-12-12T11:15:29.687Z,-1.54
2022-12-12T11:16:29.769Z,-1.61
2022-12-12T11:17:29.684Z,-1.52
2022-12-12T11:18:29.876Z,-1.51
2022-12-12T11:19:29.744Z,-1.40
2022-12-12T11:20:29.746Z,-1.48
2022-12-12T11:21:29.682Z,-1.49
2022-12-12T11:22:29.703Z,-1.34
2022-12-12T11:23:29.646Z,-1.34
2022-12-12T11:24:29.646Z,-1.45
2022-12-12T11:25:29.594Z,-1.41
2022-12-12T11:26:29.580Z,-1.41
2022-12-12T11:27:29.754Z,-1.41
2022-12-12T11:28:29.621Z,-1.40
2022-12-12T11:29:29.580Z,-1.51
2022-12-12T11:30:29.621Z,-1.49
2022-12-12T11:31:29.572Z,-1.33
2022-12-12T11:32:29.590Z,-1.38
2022-12-12T11:33:29.511Z,-1.41
2022-12-12T11:34:29.527Z,-1.28
2022-12-12T11:35:29.534Z,-1.34
2022-12-12T11:36:29.508Z,-1.30
2022-12-12T11:37:29.488Z,-1.55
2022-12-12T11:38:29.485Z,-1.49
2022-12-12T11:39:29.503Z,-1.49
2022-12-12T11:40:29.461Z,-1.41
2022-12-12T11:41:29.439Z,-1.59
2022-12-12T11:42:29.436Z,-1.67
2022-12-12T11:43:29.423Z,-1.58
2022-12-12T11:44:29.429Z,-1.58
2022-12-12T11:45:29.473Z,-1.74
2022-12-12T11:46:29.398Z,-1.73
2022-12-12T11:47:29.374Z,-1.67
2022-12-12T11:48:29.373Z,-1.72
2022-12-12T11:49:29.391Z,-1.66
2022-12-12T11:50:29.363Z,-1.72
2022-12-12T11:51:29.361Z,-1.62
2022-12-12T11:52:29.370Z,-1.52
2022-12-12T11:53:29.327Z,-1.52
2022-12-12T11:54:29.322Z,-1.41
2022-12-12T11:55:29.296Z,-1.49
2022-12-12T11:56:29.315Z,-1.43
2022-12-12T11:57:29.325Z,-1.56
2022-12-12T11:58:29.261Z,-1.41
2022-12-12T11:59:29.282Z,-1.52
2022-12-12T12:00:29.249Z,-1.46
2022-12-12T12:01:29.237Z,-1.49
2022-12-12T12:02:29.275Z,-1.51
2022-12-12T12:03:29.296Z,-1.35
2022-12-12T12:04:29.241Z,-1.27
2022-12-12T12:05:29.254Z,-1.38
2022-12-12T12:06:29.198Z,-1.33
2022-12-12T12:07:29.205Z,-1.31
2022-12-12T12:08:29.222Z,-1.31
2022-12-12T12:09:29.175Z,-1.31
2022-12-12T12:10:29.158Z,-1.37
2022-12-12T12:11:29.151Z,-1.25
2022-12-12T12:12:29.161Z,-1.35
2022-12-12T12:13:29.162Z,-1.35
2022-12-12T12:14:29.113Z,-1.30
2022-12-12T12:15:29.114Z,-1.19
2022-12-12T12:16:29.238Z,-1.15
2022-12-12T12:17:29.111Z,-1.09
2022-12-12T12:18:29.072Z,-1.09
2022-12-12T12:19:29.098Z,-1.10
2022-12-12T12:20:29.055Z,-1.09
2022-12-12T12:21:29.042Z,-1.19
2022-12-12T12:22:29.069Z,-1.20
2022-12-12T12:23:29.037Z,-1.19
2022-12-12T12:24:29.035Z,-1.31
2022-12-12T12:25:29.005Z,-1.38
2022-12-12T12:26:29.081Z,-1.43
2022-12-12T12:27:29.017Z,-1.41
2022-12-12T12:28:29.007Z,-1.51
2022-12-12T12:29:28.965Z,-1.33
2022-12-12T12:30:29.061Z,-1.43
2022-12-12T12:31:28.949Z,-1.41
2022-12-12T12:32:28.943Z,-1.33
2022-12-12T12:33:28.936Z,-1.23
2022-12-12T12:34:28.945Z,-1.09
2022-12-12T12:35:28.942Z,-0.95
2022-12-12T12:36:28.907Z,-0.85
2022-12-12T12:37:28.896Z,-0.78
2022-12-12T12:38:28.887Z,-0.69
2022-12-12T12:39:28.881Z,-0.67
2022-12-12T12:40:28.855Z,-0.65
2022-12-12T12:41:28.877Z,-0.52
2022-12-12T12:42:28.869Z,-0.64
2022-12-12T12:43:28.886Z,-0.69
2022-12-12T12:44:28.823Z,-0.69
2022-12-12T12:45:28.825Z,-0.62
2022-12-12T12:46:28.893Z,-0.75
2022-12-12T12:47:28.865Z,-0.89
2022-12-12T12:48:28.941Z,-0.94
2022-12-12T12:49:28.783Z,-0.92
2022-12-12T12:50:28.772Z,-0.89
2022-12-12T12:51:28.768Z,-0.91
2022-12-12T12:52:28.788Z,-0.94
2022-12-12T12:53:28.721Z,-0.91
2022-12-12T12:54:28.723Z,-0.95
2022-12-12T12:55:28.730Z,-1.01
2022-12-12T12:56:28.709Z,-0.99
2022-12-12T12:57:28.696Z,-0.91